Time;durP1;ratioP1;P1;durP2;ratioP2;P2;SDS_P1;SDS_P2;PMS_P1;PMS_P2;Temp;Humidity;BMP_temperature;BMP_pressure;BME280_temperature;BME280_humidity;BME280_pressure;Samples;Min_cycle;Max_cycle;Signal;HPM_P1;HPM_P2
2021/07/20 00:04:22;;;;;;;21.02;8.90;;;;;;;18.74;80.68;98988.92;3952411;87;21166;-85
2021/07/20 00:10:32;;;;;;;13.35;8.70;;;;;;;18.68;81.27;98996.81;3966867;86;21075;-84
2021/07/20 00:16:33;;;;;;;14.58;7.75;;;;;;;18.67;81.74;98984.94;3941583;87;21095;-85
2021/07/20 00:22:34;;;;;;;14.70;9.20;;;;;;;18.59;81.86;98991.84;3951886;86;21091;-85
2021/07/20 00:28:36;;;;;;;14.40;8.58;;;;;;;18.50;82.04;98989.45;3968533;86;21360;-84
2021/07/20 00:34:38;;;;;;;14.68;8.28;;;;;;;18.38;82.40;98986.75;3953477;86;21620;-84
2021/07/20 00:40:44;;;;;;;18.60;9.15;;;;;;;18.23;82.85;98981.27;3947730;87;21405;-84
2021/07/20 00:46:47;;;;;;;13.58;8.18;;;;;;;18.25;83.39;98977.47;3929217;87;21060;-83
2021/07/20 00:53:13;;;;;;;22.85;10.10;;;;;;;18.33;83.44;98972.56;3943306;87;21144;-84
2021/07/20 00:59:19;;;;;;;18.87;9.28;;;;;;;18.32;83.89;98974.55;3950737;87;21124;-84
2021/07/20 01:05:24;;;;;;;13.83;8.70;;;;;;;18.25;83.74;98966.98;3945440;86;21162;-84
2021/07/20 01:11:29;;;;;;;16.10;9.33;;;;;;;18.23;84.50;98969.39;3935193;86;21091;-83
2021/07/20 01:17:43;;;;;;;18.67;9.88;;;;;;;18.27;84.66;98973.68;3943969;87;21226;-84
2021/07/20 01:23:47;;;;;;;16.10;9.90;;;;;;;18.28;85.01;98973.84;3950885;86;21229;-85
2021/07/20 01:30:07;;;;;;;20.95;10.10;;;;;;;18.22;85.33;98965.06;3951490;87;21219;-86
2021/07/20 01:36:10;;;;;;;19.85;9.80;;;;;;;18.18;85.77;98960.22;3968035;86;21072;-86
2021/07/20 01:42:21;;;;;;;18.57;11.03;;;;;;;18.19;85.93;98955.63;3963703;86;21132;-85
2021/07/20 01:54:53;;;;;;;20.55;10.60;;;;;;;18.06;86.22;98956.08;3873319;87;21100;-86
2021/07/20 02:01:03;;;;;;;20.17;11.30;;;;;;;17.96;86.55;98967.37;3966790;86;21033;-83
2021/07/20 02:14:20;;;;;;;21.52;11.35;;;;;;;17.81;86.84;98970.99;3936899;86;21118;-85
2021/07/20 02:20:47;;;;;;;21.35;11.10;;;;;;;17.74;87.06;98976.67;3868723;88;21708;-85
2021/07/20 02:27:17;;;;;;;23.75;11.78;;;;;;;17.69;87.41;98981.90;3898233;88;21063;-84
2021/07/20 02:33:48;;;;;;;24.67;12.75;;;;;;;17.74;87.82;98988.34;3903959;88;21120;-84
2021/07/20 02:40:03;;;;;;;23.98;12.50;;;;;;;17.73;87.91;98995.09;3897419;89;21199;-84
2021/07/20 02:46:09;;;;;;;26.52;13.18;;;;;;;17.69;88.20;98986.84;3930662;87;21622;-85
2021/07/20 02:52:13;;;;;;;26.05;14.20;;;;;;;17.73;88.36;98995.86;3962856;86;21595;-85
2021/07/20 02:58:23;;;;;;;27.48;14.45;;;;;;;17.74;88.32;98999.42;3924130;88;21088;-85
2021/07/20 03:04:25;;;;;;;25.75;13.28;;;;;;;17.69;88.42;99004.05;3947431;86;21075;-85
2021/07/20 03:10:31;;;;;;;24.92;13.75;;;;;;;17.69;88.60;99005.43;3961916;86;21091;-85
2021/07/20 03:16:41;;;;;;;25.30;13.58;;;;;;;17.72;88.67;98997.66;3948551;86;21465;-85
2021/07/20 03:22:43;;;;;;;21.35;13.78;;;;;;;17.71;88.81;99005.80;3956132;87;21040;-85
2021/07/20 03:29:04;;;;;;;28.30;15.03;;;;;;;17.70;88.95;99005.60;3965181;86;21707;-84
2021/07/20 03:35:09;;;;;;;24.90;12.73;;;;;;;17.67;89.11;99009.22;3968690;86;21776;-85
2021/07/20 03:41:12;;;;;;;20.35;11.75;;;;;;;17.67;89.10;99003.09;3920364;86;21103;-84
2021/07/20 03:47:17;;;;;;;25.05;14.20;;;;;;;17.65;89.19;99007.49;3944925;87;21109;-84
2021/07/20 03:53:22;;;;;;;26.75;14.58;;;;;;;17.62;89.28;99000.80;3951982;87;21083;-84
2021/07/20 03:59:30;;;;;;;25.35;13.58;;;;;;;17.48;89.01;99009.33;3944210;87;21139;-84
2021/07/20 04:05:39;;;;;;;18.67;11.65;;;;;;;17.41;89.46;99005.88;3964015;86;21087;-85
2021/07/20 04:18:05;;;;;;;21.52;12.07;;;;;;;17.33;89.64;99005.21;3942470;86;21812;-85
2021/07/20 04:24:07;;;;;;;24.27;12.63;;;;;;;17.28;89.74;99009.03;3953891;86;21103;-84
2021/07/20 04:30:12;;;;;;;26.17;13.68;;;;;;;17.31;89.83;98995.16;3951120;86;21151;-83
2021/07/20 04:36:22;;;;;;;32.03;13.83;;;;;;;17.31;89.92;98996.54;3942640;86;21167;-84
2021/07/20 04:42:26;;;;;;;23.18;13.25;;;;;;;17.31;90.12;98995.75;3804657;89;21676;-83
2021/07/20 04:48:36;;;;;;;24.37;11.10;;;;;;;17.29;90.13;98989.88;3957833;86;21148;-84
2021/07/20 04:54:54;;;;;;;22.17;12.30;;;;;;;17.31;90.27;98997.92;3961353;86;21620;-83
2021/07/20 05:01:13;;;;;;;17.90;11.50;;;;;;;17.34;90.40;98997.08;3950214;86;21164;-83
2021/07/20 05:07:24;;;;;;;23.25;12.53;;;;;;;17.35;90.50;99002.81;3958613;86;21071;-84
2021/07/20 05:13:29;;;;;;;24.82;13.72;;;;;;;17.29;90.39;99012.77;3965699;86;21095;-83
2021/07/20 05:19:31;;;;;;;23.57;13.32;;;;;;;17.26;90.64;99016.38;3969101;86;21553;-84
2021/07/20 05:25:34;;;;;;;26.87;13.15;;;;;;;17.22;90.61;99017.04;3941220;87;21714;-82
2021/07/20 05:31:40;;;;;;;19.92;12.05;;;;;;;17.19;90.92;99014.48;3960758;86;21074;-82
2021/07/20 05:37:48;;;;;;;24.57;12.82;;;;;;;17.20;90.85;99026.34;3972001;86;21118;-83
2021/07/20 05:43:56;;;;;;;26.00;11.90;;;;;;;17.22;91.16;99025.34;3945915;86;21099;-83
2021/07/20 05:49:59;;;;;;;24.63;11.33;;;;;;;17.32;91.26;99029.15;3979623;86;22289;-83
2021/07/20 05:56:08;;;;;;;20.97;11.68;;;;;;;17.37;91.27;99028.06;3931135;86;21081;-83
2021/07/20 06:02:14;;;;;;;18.80;10.82;;;;;;;17.48;91.28;99032.09;3953533;86;21195;-84
2021/07/20 06:08:18;;;;;;;19.90;12.53;;;;;;;17.53;91.34;99035.75;3950006;87;21139;-83
2021/07/20 06:14:24;;;;;;;17.65;11.20;;;;;;;17.55;91.32;99041.66;3959597;86;21131;-83
2021/07/20 06:20:26;;;;;;;25.48;12.03;;;;;;;17.56;91.40;99044.00;3981809;86;21563;-83
2021/07/20 06:26:28;;;;;;;20.10;12.35;;;;;;;17.63;91.39;99045.28;3931927;86;21063;-83
2021/07/20 06:32:31;;;;;;;23.42;13.75;;;;;;;17.61;91.29;99045.50;3965672;86;21634;-83
2021/07/20 06:38:33;;;;;;;20.90;12.65;;;;;;;17.59;91.46;99045.13;3964383;87;21104;-83
2021/07/20 06:44:53;;;;;;;25.30;12.15;;;;;;;17.58;91.52;99055.44;3933601;87;21138;-82
2021/07/20 06:51:01;;;;;;;21.52;12.37;;;;;;;17.57;91.63;99066.31;3941216;86;21117;-83
2021/07/20 06:57:05;;;;;;;21.25;13.48;;;;;;;17.64;91.81;99074.52;3934414;87;21195;-83
2021/07/20 07:03:06;;;;;;;23.87;12.70;;;;;;;17.67;91.64;99069.52;3953699;86;21087;-83
2021/07/20 07:09:15;;;;;;;21.95;13.30;;;;;;;17.67;91.82;99070.91;3965291;86;21051;-83
2021/07/20 07:15:20;;;;;;;20.75;12.20;;;;;;;17.70;91.77;99072.05;3970382;87;21192;-82
2021/07/20 07:21:52;;;;;;;22.22;13.28;;;;;;;17.71;91.80;99063.94;3956662;87;21056;-83
2021/07/20 07:27:56;;;;;;;21.42;11.80;;;;;;;17.56;91.75;99068.12;3960401;86;21541;-83
2021/07/20 07:34:04;;;;;;;20.55;12.63;;;;;;;17.45;92.38;99067.50;3949799;87;21122;-83
2021/07/20 07:40:15;;;;;;;22.22;12.88;;;;;;;17.31;92.20;99069.86;3958966;87;21095;-84
2021/07/20 07:46:49;;;;;;;20.72;11.63;;;;;;;17.27;92.75;99069.73;3942991;86;21862;-83
2021/07/20 07:52:51;;;;;;;19.25;12.73;;;;;;;17.37;92.85;99072.95;3949209;86;21076;-84
2021/07/20 07:59:06;;;;;;;22.40;11.15;;;;;;;17.41;92.71;99071.70;3959475;86;21182;-83
2021/07/20 08:12:14;;;;;;;21.35;13.32;;;;;;;17.16;92.82;99093.40;3950521;86;21826;-84
2021/07/20 08:25:15;;;;;;;21.60;12.53;;;;;;;17.10;93.79;99092.30;3946373;86;21121;-85
2021/07/20 08:31:23;;;;;;;18.15;11.75;;;;;;;17.26;93.55;99105.52;3949612;87;21100;-83
2021/07/20 08:37:34;;;;;;;15.53;9.78;;;;;;;17.21;93.82;99104.01;3968378;87;21106;-82
2021/07/20 08:44:15;;;;;;;12.80;9.75;;;;;;;17.30;93.85;99102.09;3955060;87;21128;-82
2021/07/20 08:50:37;;;;;;;15.55;10.30;;;;;;;17.36;93.52;99100.42;3961091;86;21997;-81
2021/07/20 08:56:50;;;;;;;14.75;8.93;;;;;;;17.10;93.91;99109.66;3956930;86;21072;-81
2021/07/20 09:03:30;;;;;;;16.50;10.03;;;;;;;16.96;93.93;99104.31;3946592;86;21643;-82
2021/07/20 09:09:35;;;;;;;15.70;8.70;;;;;;;17.01;93.70;99106.63;3969462;86;21035;-83
2021/07/20 09:15:42;;;;;;;15.43;9.27;;;;;;;17.16;93.87;99105.84;3961247;86;21124;-83
2021/07/20 09:28:33;;;;;;;14.55;9.35;;;;;;;17.36;93.59;99110.90;3963902;86;21189;-83
2021/07/20 09:49:00;;;;;;;13.28;8.88;;;;;;;17.51;92.83;99102.59;3908952;86;21625;-83
2021/07/20 09:55:55;;;;;;;10.48;7.55;;;;;;;17.67;92.95;99105.52;3949820;86;21079;-83
2021/07/20 10:02:06;;;;;;;11.80;8.00;;;;;;;17.73;92.07;99106.60;3944317;86;21643;-84
2021/07/20 10:08:38;;;;;;;19.90;9.28;;;;;;;17.94;92.77;99105.48;3943396;87;21167;-84
2021/07/20 10:15:09;;;;;;;12.30;8.68;;;;;;;18.17;92.65;99100.72;3960390;87;21630;-84
2021/07/20 10:27:56;;;;;;;11.57;7.08;;;;;;;18.15;92.12;99087.13;3954717;86;21088;-82
2021/07/20 10:34:19;;;;;;;11.80;7.28;;;;;;;18.16;91.70;99085.91;3953832;86;21103;-84
2021/07/20 10:40:25;;;;;;;10.88;7.65;;;;;;;18.08;91.12;99078.92;3962720;87;21704;-83
2021/07/20 10:46:34;;;;;;;15.17;8.23;;;;;;;18.29;91.18;99071.00;3975608;87;21420;-84
2021/07/20 10:52:56;;;;;;;9.68;7.70;;;;;;;18.23;90.60;99071.31;3946036;86;21051;-84
2021/07/20 10:59:15;;;;;;;14.85;8.18;;;;;;;18.20;89.78;99075.52;3883627;87;21525;-84
2021/07/20 11:05:37;;;;;;;13.22;7.72;;;;;;;18.17;90.39;99075.78;3954171;86;21705;-83
2021/07/20 11:11:52;;;;;;;11.50;7.28;;;;;;;18.31;90.67;99078.29;3991627;86;21173;-82
2021/07/20 11:18:14;;;;;;;13.78;8.05;;;;;;;18.30;89.99;99077.33;3983762;85;21094;-83
2021/07/20 11:31:36;;;;;;;12.37;7.87;;;;;;;18.30;89.80;99073.97;4070883;84;21177;-82
2021/07/20 11:37:47;;;;;;;11.90;7.53;;;;;;;18.39;90.14;99067.88;4012214;83;21150;-83
2021/07/20 11:44:16;;;;;;;15.63;8.20;;;;;;;18.50;90.48;99073.41;4069220;84;21549;-82
2021/07/20 11:51:01;;;;;;;11.22;8.18;;;;;;;18.44;90.29;99064.63;4078534;83;21050;-83
2021/07/20 11:57:29;;;;;;;11.05;7.35;;;;;;;18.45;89.82;99063.41;4052337;84;21400;-84
2021/07/20 12:04:11;;;;;;;12.15;8.00;;;;;;;18.54;89.43;99061.63;4064915;83;21106;-84
2021/07/20 12:16:52;;;;;;;12.78;7.33;;;;;;;18.99;90.00;99044.47;4049985;83;21080;-84
2021/07/20 12:22:58;;;;;;;9.83;7.45;;;;;;;19.17;89.18;99033.15;4084446;83;22256;-83
2021/07/20 12:29:07;;;;;;;11.48;7.22;;;;;;;19.25;88.40;99032.37;4020044;85;21130;-84
2021/07/20 12:35:12;;;;;;;12.40;8.28;;;;;;;19.27;87.50;99031.34;3974998;84;21578;-84
2021/07/20 12:41:24;;;;;;;11.78;6.87;;;;;;;19.33;88.17;99023.49;4092514;83;21069;-84
2021/07/20 12:47:25;;;;;;;13.22;8.00;;;;;;;19.41;87.66;99012.41;4067260;84;21108;-84
2021/07/20 12:53:27;;;;;;;11.20;6.42;;;;;;;19.31;86.73;99002.95;4105942;84;21076;-85
2021/07/20 12:59:29;;;;;;;11.60;7.03;;;;;;;19.23;85.36;99002.91;4057128;84;21093;-85
2021/07/20 13:05:32;;;;;;;9.30;7.05;;;;;;;19.40;85.88;99014.22;4088702;83;21218;-83
2021/07/20 13:11:40;;;;;;;10.78;5.78;;;;;;;19.53;83.80;99015.86;4052102;84;21150;-84
2021/07/20 13:17:42;;;;;;;7.85;4.80;;;;;;;19.48;83.68;99010.83;4090412;83;21113;-84
2021/07/20 13:23:51;;;;;;;8.33;5.00;;;;;;;19.38;76.54;99018.82;4008812;84;22474;-84
2021/07/20 13:29:55;;;;;;;7.12;5.58;;;;;;;19.43;76.29;99014.14;3997043;84;21101;-84
2021/07/20 13:35:57;;;;;;;7.10;4.87;;;;;;;19.83;78.44;99003.61;4024884;85;21139;-84
2021/07/20 13:41:58;;;;;;;9.43;4.67;;;;;;;20.06;77.85;98997.22;4027670;85;21028;-85
2021/07/20 13:48:12;;;;;;;6.42;4.90;;;;;;;20.08;75.14;98988.45;4004110;85;21154;-85
2021/07/20 13:54:29;;;;;;;6.50;4.47;;;;;;;20.22;73.99;98990.86;4009023;84;21120;-85
2021/07/20 14:00:42;;;;;;;7.87;4.80;;;;;;;20.37;71.51;98986.48;4013127;84;21098;-84
2021/07/20 14:06:46;;;;;;;8.58;5.35;;;;;;;20.47;68.46;98984.00;4010546;84;22619;-85
2021/07/20 14:12:47;;;;;;;8.80;5.20;;;;;;;20.63;71.36;98978.97;4011547;85;21174;-85
2021/07/20 14:18:52;;;;;;;7.37;4.78;;;;;;;20.56;67.54;98981.38;4023349;85;21047;-85
2021/07/20 14:25:01;;;;;;;9.70;4.92;;;;;;;20.56;70.30;98984.75;4001256;86;21173;-85
2021/07/20 14:31:10;;;;;;;9.10;5.20;;;;;;;20.47;70.95;98988.80;4024457;86;21139;-85
2021/07/20 14:37:53;;;;;;;9.03;5.00;;;;;;;20.23;71.47;98990.27;4006092;85;21083;-83
2021/07/20 14:44:03;;;;;;;11.73;5.12;;;;;;;20.16;71.81;98999.58;4018029;85;21613;-83
2021/07/20 14:50:35;;;;;;;8.63;4.95;;;;;;;19.97;71.74;99004.02;4011165;85;21172;-83
2021/07/20 14:57:01;;;;;;;8.30;4.47;;;;;;;19.80;71.99;99008.05;4016742;85;21071;-83
2021/07/20 15:03:50;;;;;;;12.10;6.92;;;;;;;19.61;72.93;99022.02;4009123;86;21231;-83
2021/07/20 15:10:13;;;;;;;13.53;8.20;;;;;;;19.39;73.96;99022.36;4006132;84;21150;-82
2021/07/20 15:16:24;;;;;;;15.78;7.80;;;;;;;19.24;74.12;99026.06;4020172;84;21549;-83
2021/07/20 15:22:37;;;;;;;10.08;7.87;;;;;;;19.10;74.32;99018.66;4015551;85;21110;-84
2021/07/20 15:28:45;;;;;;;10.93;7.62;;;;;;;19.02;74.65;99023.59;4008529;86;21238;-83
2021/07/20 15:34:50;;;;;;;12.63;7.40;;;;;;;18.96;74.94;99027.30;4013636;85;21092;-83
2021/07/20 15:40:51;;;;;;;16.20;8.10;;;;;;;18.90;75.19;99023.48;4001529;85;21846;-85
2021/07/20 15:47:02;;;;;;;11.60;7.55;;;;;;;18.92;76.01;99023.84;4009568;85;21297;-84
2021/07/20 15:53:10;;;;;;;11.30;7.92;;;;;;;18.99;75.88;99022.28;4013050;85;21115;-83
2021/07/20 15:59:11;;;;;;;11.65;8.35;;;;;;;19.08;76.37;99026.63;4018190;85;21528;-85
2021/07/20 16:05:23;;;;;;;11.15;7.78;;;;;;;19.07;76.61;99025.86;4021054;85;21138;-81
2021/07/20 16:11:31;;;;;;;12.45;8.38;;;;;;;19.01;76.76;99028.19;4003440;85;21727;-84
2021/07/20 16:17:38;;;;;;;15.05;8.78;;;;;;;19.03;77.11;99032.08;3991797;85;21378;-84
2021/07/20 16:23:40;;;;;;;12.30;8.00;;;;;;;19.03;77.12;99023.76;4009348;85;21093;-84
2021/07/20 16:29:53;;;;;;;15.80;8.00;;;;;;;19.01;77.60;99034.53;4002975;85;21153;-84
2021/07/20 16:36:01;;;;;;;13.60;8.67;;;;;;;18.98;77.73;99025.65;4015560;84;21144;-84
2021/07/20 16:42:05;;;;;;;12.18;7.00;;;;;;;18.98;77.88;99022.88;4002658;85;21649;-84
2021/07/20 16:48:10;;;;;;;12.05;7.58;;;;;;;18.98;78.12;99029.81;4003887;86;21075;-84
2021/07/20 16:54:11;;;;;;;14.07;7.42;;;;;;;18.90;78.47;99035.36;4009002;85;21137;-84
2021/07/20 17:00:25;;;;;;;13.20;7.05;;;;;;;18.76;78.32;99037.05;4025047;86;21198;-83
2021/07/20 17:06:32;;;;;;;14.07;7.20;;;;;;;18.55;78.87;99041.04;4012262;85;21040;-83
2021/07/20 17:12:33;;;;;;;13.73;8.33;;;;;;;18.58;79.11;99044.94;3984758;86;21125;-83
2021/07/20 17:18:39;;;;;;;15.00;7.87;;;;;;;18.38;79.46;99046.33;3997882;85;21107;-84
2021/07/20 17:24:50;;;;;;;17.50;8.53;;;;;;;18.37;80.14;99046.11;4004815;85;21517;-84
2021/07/20 17:30:55;;;;;;;15.98;8.13;;;;;;;18.42;80.03;99047.63;4001740;85;21112;-83
2021/07/20 17:36:59;;;;;;;13.28;8.75;;;;;;;18.48;80.48;99041.77;4012528;85;21173;-85
2021/07/20 17:43:05;;;;;;;14.80;9.28;;;;;;;18.51;80.60;99050.64;4022045;85;21637;-85
2021/07/20 17:49:10;;;;;;;19.15;9.25;;;;;;;18.49;80.79;99052.45;4002736;86;21118;-84
2021/07/20 17:55:21;;;;;;;14.33;7.87;;;;;;;18.39;81.02;99061.75;3994941;86;21519;-85
2021/07/20 18:01:22;;;;;;;11.63;7.90;;;;;;;18.29;81.04;99059.91;4037841;83;21077;-84
2021/07/20 18:07:26;;;;;;;18.05;9.33;;;;;;;18.16;81.31;99053.45;4044484;84;21079;-84
2021/07/20 18:13:27;;;;;;;27.40;8.70;;;;;;;18.21;81.99;99059.10;3999448;85;21116;-84
2021/07/20 18:19:30;;;;;;;14.60;8.73;;;;;;;18.18;82.13;99064.11;4032733;86;21107;-84
2021/07/20 18:25:32;;;;;;;15.30;9.88;;;;;;;18.09;82.75;99079.09;4000575;86;21051;-83
2021/07/20 18:31:36;;;;;;;15.95;9.75;;;;;;;18.03;82.54;99082.95;4010187;86;21640;-84
2021/07/20 18:37:37;;;;;;;17.55;10.00;;;;;;;18.00;82.59;99086.58;4017060;85;21071;-83
2021/07/20 18:43:38;;;;;;;18.73;10.05;;;;;;;17.94;82.78;99084.70;4017368;85;21081;-84
2021/07/20 18:49:41;;;;;;;17.73;9.45;;;;;;;17.91;83.32;99095.24;4019981;86;21158;-85
2021/07/20 18:55:48;;;;;;;12.58;8.40;;;;;;;17.94;83.44;99104.09;3995519;84;21264;-85
2021/07/20 19:01:49;;;;;;;17.92;9.90;;;;;;;17.88;82.99;99118.23;4008958;84;21592;-86
2021/07/20 19:07:56;;;;;;;13.62;9.55;;;;;;;17.73;83.18;99131.52;4003395;85;21087;-85
2021/07/20 19:14:01;;;;;;;21.45;11.40;;;;;;;17.48;83.27;99159.40;4016059;86;21190;-84
2021/07/20 19:20:10;;;;;;;18.62;9.25;;;;;;;17.21;84.01;99178.70;4022240;85;21067;-83
2021/07/20 19:40:14;;;;;;;15.68;10.43;;;;;;;16.75;85.99;99173.70;3997897;86;21121;-83
2021/07/20 19:46:22;;;;;;;17.02;11.35;;;;;;;16.86;86.63;99174.96;3998514;85;21336;-84
2021/07/20 19:59:32;;;;;;;18.15;9.65;;;;;;;16.60;88.12;99171.50;4011372;85;21180;-83
2021/07/20 20:05:33;;;;;;;17.65;10.25;;;;;;;16.53;88.05;99168.79;3994150;85;21128;-84
2021/07/20 20:18:32;;;;;;;17.85;10.25;;;;;;;16.41;88.83;99157.62;4001062;85;21147;-84
2021/07/20 20:31:24;;;;;;;16.50;10.20;;;;;;;16.41;89.39;99155.47;3997013;85;21107;-84
2021/07/20 20:37:50;;;;;;;16.30;9.53;;;;;;;16.44;89.68;99154.65;3997515;85;21083;-81
2021/07/20 20:43:52;;;;;;;14.38;10.30;;;;;;;16.49;89.69;99155.00;3979804;84;21126;-82
2021/07/20 20:49:56;;;;;;;16.25;9.60;;;;;;;16.40;89.98;99160.79;3985382;85;21104;-83
2021/07/20 20:56:02;;;;;;;15.78;10.38;;;;;;;16.34;90.22;99160.46;3951001;87;21768;-82
2021/07/20 21:02:35;;;;;;;15.32;9.08;;;;;;;16.40;90.65;99169.08;4047018;83;21906;-82
2021/07/20 21:08:49;;;;;;;13.35;8.73;;;;;;;16.40;90.94;99172.63;4049575;85;21098;-82
2021/07/20 21:14:56;;;;;;;15.68;9.60;;;;;;;16.52;91.16;99167.23;4081415;85;21130;-82
2021/07/20 21:20:57;;;;;;;12.30;8.75;;;;;;;16.58;91.32;99173.88;4065481;85;21097;-82
2021/07/20 21:26:59;;;;;;;14.47;9.55;;;;;;;16.41;91.38;99171.42;4016838;85;21043;-82
2021/07/20 21:33:03;;;;;;;17.80;10.38;;;;;;;16.32;91.98;99175.89;4003500;85;21067;-81
2021/07/20 21:39:10;;;;;;;14.93;9.33;;;;;;;16.30;92.20;99176.27;3984371;85;21686;-82
2021/07/20 21:45:15;;;;;;;18.50;10.25;;;;;;;16.35;92.70;99179.21;4003679;87;21071;-82
2021/07/20 21:57:57;;;;;;;13.58;9.80;;;;;;;16.51;92.89;99187.75;4006029;84;21570;-82
2021/07/20 22:04:06;;;;;;;16.00;10.15;;;;;;;16.51;92.93;99185.78;3985061;86;21149;-82
2021/07/20 22:10:09;;;;;;;14.00;10.08;;;;;;;16.60;93.09;99194.98;4005671;86;21113;-83
2021/07/20 22:16:11;;;;;;;16.25;9.18;;;;;;;16.58;93.15;99192.64;4025854;85;21543;-82
2021/07/20 22:22:22;;;;;;;11.48;8.70;;;;;;;16.48;92.92;99200.42;3999595;85;21020;-82
2021/07/20 22:42:26;;;;;;;14.78;8.30;;;;;;;16.40;93.40;99209.94;3944307;86;21050;-82
2021/07/20 22:48:56;;;;;;;14.03;8.40;;;;;;;16.31;93.50;99211.00;3962355;87;21234;-82
2021/07/20 22:55:35;;;;;;;14.65;7.87;;;;;;;16.28;93.64;99211.82;3982177;85;21098;-81
2021/07/20 23:02:01;;;;;;;13.90;9.73;;;;;;;16.36;93.74;99216.69;3995563;85;21643;-82
2021/07/20 23:08:50;;;;;;;13.22;8.28;;;;;;;16.31;94.24;99219.88;3973545;87;21098;-83
2021/07/20 23:15:12;;;;;;;15.25;7.90;;;;;;;16.38;94.08;99223.98;3979704;85;21156;-82
2021/07/20 23:28:01;;;;;;;14.00;9.20;;;;;;;16.30;94.55;99234.89;3983298;85;21063;-82
2021/07/20 23:40:55;;;;;;;19.65;9.78;;;;;;;16.31;94.75;99240.59;4006771;85;21095;-83
2021/07/20 23:47:10;;;;;;;16.12;10.48;;;;;;;16.22;94.82;99239.70;4005423;85;21171;-84
2021/07/20 23:53:35;;;;;;;21.62;9.33;;;;;;;16.13;95.02;99241.34;4014859;85;21158;-83
